Time;durP1;ratioP1;P1;durP2;ratioP2;P2;SDS_P1;SDS_P2;PMS_P1;PMS_P2;Temp;Humidity;BMP_temperature;BMP_pressure;BME280_temperature;BME280_humidity;BME280_pressure;Samples;Min_cycle;Max_cycle;Signal;HPM_P1;HPM_P2
2021/12/01 00:00:54;;;;;;;15.15;8.65;;;;;;;-2.88;81.79;94283.00;4953411;28;20199;-80
2021/12/01 00:03:21;;;;;;;16.48;8.20;;;;;;;-2.97;81.28;94304.91;4953304;28;20210;-79
2021/12/01 00:05:51;;;;;;;15.52;8.13;;;;;;;-3.08;81.79;94300.56;4953626;28;20274;-80
2021/12/01 00:08:18;;;;;;;21.05;9.95;;;;;;;-3.07;83.56;94308.25;4953084;28;20898;-81
2021/12/01 00:10:46;;;;;;;10.13;5.72;;;;;;;-2.92;81.73;94292.50;4952959;28;20211;-81
2021/12/01 00:13:16;;;;;;;14.77;7.75;;;;;;;-2.71;81.16;94290.00;4952474;28;20290;-81
2021/12/01 00:15:45;;;;;;;15.00;8.10;;;;;;;-2.80;81.53;94288.88;4952571;28;20555;-81
2021/12/01 00:18:11;;;;;;;17.77;9.02;;;;;;;-2.84;81.66;94295.72;4951902;28;20203;-80
2021/12/01 00:20:39;;;;;;;12.70;7.93;;;;;;;-2.84;81.19;94282.47;4953197;28;20202;-82
2021/12/01 00:23:09;;;;;;;17.55;8.98;;;;;;;-3.07;80.87;94278.31;4953405;28;20210;-81
2021/12/01 00:25:39;;;;;;;16.25;9.05;;;;;;;-3.08;81.58;94304.00;4953129;28;20262;-82
2021/12/01 00:28:08;;;;;;;13.50;7.93;;;;;;;-3.09;81.56;94286.53;4952732;28;20231;-80
2021/12/01 00:30:35;;;;;;;18.15;9.05;;;;;;;-3.07;82.44;94279.13;4953397;28;20215;-82
2021/12/01 00:33:03;;;;;;;15.07;8.15;;;;;;;-3.13;81.95;94289.91;4953080;28;20231;-86
2021/12/01 00:35:31;;;;;;;6.07;3.30;;;;;;;-3.17;82.35;94300.22;4940606;28;20203;-83
2021/12/01 00:37:58;;;;;;;6.35;3.83;;;;;;;-3.22;82.07;94287.72;4940348;29;20215;-82
2021/12/01 00:40:26;;;;;;;22.70;10.45;;;;;;;-3.16;82.22;94285.94;4952734;28;20662;-82
2021/12/01 00:42:54;;;;;;;6.72;3.03;;;;;;;-3.21;81.22;94264.69;4953219;28;20923;-82
2021/12/01 00:45:22;;;;;;;6.50;3.15;;;;;;;-3.13;82.15;94274.81;4940062;28;20211;-82
2021/12/01 00:47:52;;;;;;;10.32;3.90;;;;;;;-2.93;82.66;94295.41;4952331;28;20705;-83
2021/12/01 00:50:22;;;;;;;9.90;3.45;;;;;;;-3.18;81.35;94271.34;4952799;28;20214;-81
2021/12/01 00:52:49;;;;;;;5.45;3.25;;;;;;;-3.26;82.57;94273.38;4952676;28;20697;-81
2021/12/01 00:55:16;;;;;;;5.03;2.85;;;;;;;-3.23;82.70;94264.13;4953146;28;20248;-81
2021/12/01 00:57:44;;;;;;;14.38;3.50;;;;;;;-3.21;83.38;94256.75;4952962;28;20693;-81
2021/12/01 01:00:13;;;;;;;5.28;3.78;;;;;;;-3.17;83.32;94273.75;4953254;28;20269;-81
2021/12/01 01:02:40;;;;;;;5.95;3.00;;;;;;;-2.87;83.02;94268.69;4951450;29;20218;-81
2021/12/01 01:05:08;;;;;;;2.78;1.35;;;;;;;-3.07;80.77;94257.13;4952766;28;20203;-82
2021/12/01 01:07:36;;;;;;;5.57;1.88;;;;;;;-3.30;81.58;94242.38;4952954;28;20215;-81
2021/12/01 01:10:16;;;;;;;2.97;2.55;;;;;;;-3.31;82.56;94278.66;4952642;28;20211;-80
2021/12/01 01:18:14;;;;;;;12.60;8.25;;;;;;;-3.31;82.54;94277.84;4952503;29;20202;-79
2021/12/01 01:20:41;;;;;;;10.75;3.58;;;;;;;-3.24;83.75;94284.53;4950964;28;20199;-79
2021/12/01 01:23:08;;;;;;;6.35;3.00;;;;;;;-3.37;83.69;94282.28;4952154;28;20215;-79
2021/12/01 01:25:35;;;;;;;4.00;1.45;;;;;;;-3.44;83.33;94284.34;4951714;28;20697;-79
2021/12/01 01:28:04;;;;;;;6.72;3.60;;;;;;;-3.46;83.77;94304.16;4952402;28;20207;-79
2021/12/01 01:30:31;;;;;;;5.97;3.85;;;;;;;-3.23;82.71;94290.63;4952217;28;20257;-78
2021/12/01 01:32:58;;;;;;;5.75;3.15;;;;;;;-3.11;83.92;94271.91;4939286;28;20231;-79
2021/12/01 01:35:25;;;;;;;5.82;3.00;;;;;;;-2.87;83.49;94305.78;4940859;28;20203;-79
2021/12/01 01:37:52;;;;;;;4.75;2.47;;;;;;;-2.67;82.87;94320.25;4951595;29;20563;-78
2021/12/01 01:40:19;;;;;;;3.42;1.83;;;;;;;-2.51;82.88;94308.72;4953449;28;20218;-78
2021/12/01 01:42:48;;;;;;;3.85;2.05;;;;;;;-2.34;80.54;94284.72;4956156;28;20265;-78
2021/12/01 01:45:17;;;;;;;2.60;1.83;;;;;;;-2.34;80.86;94304.09;4955290;28;20648;-80
2021/12/01 01:47:59;;;;;;;2.97;1.60;;;;;;;-2.27;79.92;94288.72;4955412;28;20239;-79
2021/12/01 01:50:35;;;;;;;3.90;2.33;;;;;;;-2.47;79.81;94288.63;4955311;28;20747;-78
2021/12/01 01:53:03;;;;;;;4.15;2.33;;;;;;;-2.61;80.52;94276.84;4955759;28;20227;-78
2021/12/01 01:55:29;;;;;;;1.98;1.15;;;;;;;-2.56;80.06;94259.13;4955643;28;20218;-79
2021/12/01 01:57:56;;;;;;;0.60;0.60;;;;;;;-2.78;79.65;94281.47;4955781;28;20215;-80
2021/12/01 02:00:26;;;;;;;14.15;6.55;;;;;;;-2.94;80.65;94284.00;4955945;28;20211;-79
2021/12/01 02:02:55;;;;;;;8.38;5.32;;;;;;;-2.97;81.79;94231.53;4956024;28;20202;-82
2021/12/01 02:05:22;;;;;;;8.93;5.78;;;;;;;-2.64;81.38;94245.53;4955971;28;20210;-83
2021/12/01 02:07:51;;;;;;;9.82;5.47;;;;;;;-2.60;80.13;94262.56;4955882;28;20261;-80
2021/12/01 02:10:18;;;;;;;11.35;6.00;;;;;;;-2.75;79.99;94275.69;4955494;28;20235;-79
2021/12/01 02:12:45;;;;;;;11.23;6.15;;;;;;;-2.73;81.08;94273.59;4955341;28;20219;-80
2021/12/01 02:15:12;;;;;;;16.13;5.50;;;;;;;-2.73;80.59;94268.28;4955117;28;20670;-79
2021/12/01 02:17:40;;;;;;;10.68;6.22;;;;;;;-2.76;81.59;94242.28;4955419;28;20203;-79
2021/12/01 02:20:19;;;;;;;1.50;1.10;;;;;;;-2.64;79.34;94242.91;4942115;29;20203;-79
2021/12/01 02:22:46;;;;;;;2.28;2.08;;;;;;;-2.70;79.64;94257.16;4953925;28;20237;-79
2021/12/01 02:25:13;;;;;;;4.07;2.58;;;;;;;-2.62;80.21;94232.84;4954741;28;20367;-79
2021/12/01 02:27:40;;;;;;;3.20;1.98;;;;;;;-2.45;79.20;94230.81;4941637;28;20216;-77
2021/12/01 02:30:07;;;;;;;1.42;1.13;;;;;;;-2.51;79.48;94261.00;4955129;28;20646;-78
2021/12/01 02:32:35;;;;;;;4.75;1.92;;;;;;;-2.57;78.90;94252.22;4955213;28;20273;-78
2021/12/01 02:35:02;;;;;;;4.22;2.55;;;;;;;-2.52;79.38;94211.69;4952229;28;20729;-79
2021/12/01 02:37:30;;;;;;;4.43;2.38;;;;;;;-2.49;79.46;94213.03;4955087;28;20645;-78
2021/12/01 02:39:59;;;;;;;2.15;1.73;;;;;;;-2.60;79.10;94236.03;4954895;28;20211;-78
2021/12/01 02:42:25;;;;;;;4.82;2.63;;;;;;;-2.49;80.96;94258.91;4954425;28;20234;-79
2021/12/01 02:44:52;;;;;;;7.75;3.03;;;;;;;-2.34;80.01;94245.75;4954587;28;20261;-78
2021/12/01 02:47:19;;;;;;;3.92;2.28;;;;;;;-2.51;78.43;94218.59;4953685;28;20223;-77
2021/12/01 02:49:46;;;;;;;7.05;2.08;;;;;;;-2.54;80.45;94219.09;4954543;28;20686;-77
2021/12/01 02:52:15;;;;;;;3.95;2.10;;;;;;;-2.42;80.01;94240.91;4954100;28;20229;-77
2021/12/01 02:54:43;;;;;;;2.10;1.50;;;;;;;-2.31;78.15;94249.72;4954089;28;20254;-77
2021/12/01 02:57:11;;;;;;;3.60;1.95;;;;;;;-2.37;77.33;94254.19;4954542;28;20254;-77
2021/12/01 02:59:39;;;;;;;3.47;1.90;;;;;;;-2.40;78.47;94253.91;4954230;28;20626;-77
2021/12/01 03:02:06;;;;;;;3.28;2.28;;;;;;;-2.48;79.43;94249.91;4954825;28;20611;-77
2021/12/01 03:04:33;;;;;;;4.78;2.17;;;;;;;-2.46;79.74;94242.47;4954718;28;20206;-77
2021/12/01 03:07:00;;;;;;;3.92;2.63;;;;;;;-2.36;79.64;94284.19;4954508;28;20210;-77
2021/12/01 03:09:27;;;;;;;3.72;2.38;;;;;;;-2.63;79.63;94253.25;4954514;28;20214;-78
2021/12/01 03:11:55;;;;;;;4.63;1.65;;;;;;;-2.45;80.53;94233.47;4954496;28;20258;-78
2021/12/01 03:14:22;;;;;;;1.27;0.98;;;;;;;-2.47;79.70;94229.50;4954195;28;20763;-77
2021/12/01 03:16:51;;;;;;;2.72;1.20;;;;;;;-2.38;80.54;94271.16;4954174;28;20210;-77
2021/12/01 03:19:18;;;;;;;2.17;1.58;;;;;;;-2.54;79.74;94245.59;4954347;28;20207;-77
2021/12/01 03:21:46;;;;;;;2.42;1.30;;;;;;;-2.41;80.14;94271.66;4954380;28;20202;-77
2021/12/01 03:24:13;;;;;;;12.63;2.10;;;;;;;-2.42;80.69;94254.16;4954016;28;20203;-79
2021/12/01 03:26:40;;;;;;;3.45;1.58;;;;;;;-2.35;80.19;94254.75;4954349;28;20206;-79
2021/12/01 03:29:12;;;;;;;2.00;1.60;;;;;;;-2.45;79.98;94254.66;4954029;28;20210;-79
2021/12/01 03:31:39;;;;;;;7.45;2.15;;;;;;;-2.64;80.90;94266.75;4954350;28;20199;-75
2021/12/01 03:34:06;;;;;;;2.05;1.27;;;;;;;-2.53;80.72;94284.31;4951417;28;20228;-77
2021/12/01 03:36:34;;;;;;;2.38;1.45;;;;;;;-2.54;80.38;94309.22;4954029;28;20211;-76
2021/12/01 03:39:00;;;;;;;3.13;1.95;;;;;;;-2.58;81.16;94271.03;4941409;28;20568;-76
2021/12/01 03:41:27;;;;;;;1.55;1.45;;;;;;;-2.60;80.65;94242.13;4953195;28;20214;-76
2021/12/01 03:43:54;;;;;;;6.32;3.30;;;;;;;-2.43;80.63;94273.78;4953578;28;20207;-76
2021/12/01 03:46:23;;;;;;;7.00;4.65;;;;;;;-2.28;80.07;94276.53;4953700;28;20203;-76
2021/12/01 03:48:50;;;;;;;8.23;4.90;;;;;;;-2.20;79.29;94262.81;4952800;28;20706;-76
2021/12/01 03:51:17;;;;;;;8.23;4.93;;;;;;;-2.02;79.54;94264.19;4952448;28;20300;-76
2021/12/01 03:53:44;;;;;;;8.68;5.63;;;;;;;-2.01;79.55;94267.66;4953374;28;20230;-76
2021/12/01 03:56:11;;;;;;;2.22;1.75;;;;;;;-2.06;79.14;94273.75;4952930;28;20203;-77
2021/12/01 03:58:38;;;;;;;3.10;2.10;;;;;;;-2.04;79.85;94278.78;4953556;28;20261;-77
2021/12/01 04:01:09;;;;;;;4.60;2.13;;;;;;;-2.13;79.78;94257.25;4953482;28;20254;-77
2021/12/01 04:03:38;;;;;;;1.55;1.20;;;;;;;-1.98;80.83;94259.19;4952782;28;20227;-77
2021/12/01 04:06:05;;;;;;;3.00;1.92;;;;;;;-1.72;79.22;94268.84;4953607;28;20261;-81
2021/12/01 04:08:34;;;;;;;2.83;1.33;;;;;;;-1.70;80.06;94261.41;4953630;28;20207;-78
2021/12/01 04:11:01;;;;;;;2.88;2.05;;;;;;;-1.93;79.14;94243.28;4953230;28;20210;-76
2021/12/01 04:13:28;;;;;;;4.55;1.77;;;;;;;-1.91;79.91;94243.81;4953107;28;20227;-78
2021/12/01 04:15:55;;;;;;;2.47;1.50;;;;;;;-2.01;79.76;94254.38;4953161;28;20213;-77
2021/12/01 04:18:22;;;;;;;2.42;1.85;;;;;;;-1.96;81.01;94231.34;4948663;28;20690;-78
2021/12/01 04:20:50;;;;;;;2.47;1.65;;;;;;;-2.13;78.69;94248.50;4952487;28;20217;-77
2021/12/01 04:23:17;;;;;;;3.15;1.58;;;;;;;-2.19;80.17;94237.84;4953229;28;20214;-77
2021/12/01 04:25:44;;;;;;;3.97;1.98;;;;;;;-2.18;79.47;94243.94;4952826;28;20289;-77
2021/12/01 04:28:11;;;;;;;2.25;1.67;;;;;;;-2.04;79.31;94228.34;4951082;28;20733;-77
2021/12/01 04:30:38;;;;;;;4.93;2.15;;;;;;;-2.06;79.24;94247.22;4946026;29;20207;-76
2021/12/01 04:33:05;;;;;;;2.03;1.73;;;;;;;-2.12;80.10;94203.13;4948747;28;20295;-77
2021/12/01 04:35:33;;;;;;;1.63;1.50;;;;;;;-1.16;75.13;94213.19;4940866;29;20231;-77
2021/12/01 04:38:02;;;;;;;4.22;1.40;;;;;;;-1.42;77.48;94235.47;4947228;28;20344;-78
2021/12/01 04:40:29;;;;;;;2.40;1.50;;;;;;;-0.63;74.20;94216.38;4945209;29;20681;-78
2021/12/01 04:42:55;;;;;;;0.90;0.90;;;;;;;-0.84;74.68;94211.09;4940302;29;20255;-78
2021/12/01 04:45:25;;;;;;;2.03;1.65;;;;;;;-1.08;76.22;94231.25;4942253;29;20223;-80
2021/12/01 04:47:54;;;;;;;1.92;1.55;;;;;;;-1.37;78.02;94243.47;4943452;28;20236;-77
2021/12/01 04:50:23;;;;;;;1.42;1.30;;;;;;;-1.38;79.64;94242.66;4943374;28;20195;-75
2021/12/01 04:52:51;;;;;;;6.13;2.35;;;;;;;-1.49;80.21;94241.81;4944327;28;20788;-78
2021/12/01 04:55:19;;;;;;;1.33;1.10;;;;;;;-1.38;80.18;94268.44;4939488;29;20719;-78
2021/12/01 04:57:48;;;;;;;3.45;2.42;;;;;;;-1.18;78.67;94233.91;4939382;28;20223;-75
2021/12/01 05:00:18;;;;;;;1.75;1.45;;;;;;;-0.92;77.67;94251.47;4951548;29;20210;-79
2021/12/01 05:02:45;;;;;;;2.60;1.23;;;;;;;-0.77;76.92;94259.44;4952077;28;20207;-78
2021/12/01 05:05:11;;;;;;;4.68;1.67;;;;;;;-1.03;76.30;94255.19;4951232;28;20718;-76
2021/12/01 05:07:38;;;;;;;4.47;1.85;;;;;;;-1.11;77.39;94274.31;4939216;28;20451;-78
2021/12/01 05:10:06;;;;;;;4.03;1.90;;;;;;;-1.27;77.21;94272.69;4951155;29;20292;-76
2021/12/01 05:12:35;;;;;;;4.28;1.98;;;;;;;-1.39;78.12;94272.94;4937156;28;20200;-77
2021/12/01 05:15:01;;;;;;;2.80;2.10;;;;;;;-1.52;78.53;94279.53;4950949;28;20269;-79
2021/12/01 05:17:28;;;;;;;3.55;1.73;;;;;;;-1.57;78.27;94292.00;4945066;29;20689;-77
2021/12/01 05:19:55;;;;;;;5.22;2.75;;;;;;;-1.59;77.71;94280.81;4948154;28;20248;-79
2021/12/01 05:22:22;;;;;;;9.80;3.28;;;;;;;-1.58;79.99;94277.91;4949430;28;20199;-80
2021/12/01 05:24:49;;;;;;;3.55;1.60;;;;;;;-1.49;79.88;94334.78;4944947;29;20199;-79
2021/12/01 05:27:16;;;;;;;3.63;2.47;;;;;;;-1.52;79.13;94306.09;4944198;29;20654;-79
2021/12/01 05:29:44;;;;;;;1.13;0.85;;;;;;;-1.52;78.21;94311.41;4946471;28;20204;-79
2021/12/01 05:32:13;;;;;;;2.45;1.73;;;;;;;-1.47;80.00;94314.06;4951492;28;20195;-79
2021/12/01 05:34:40;;;;;;;3.67;2.50;;;;;;;-1.32;79.96;94294.72;4948340;28;20227;-79
2021/12/01 05:37:06;;;;;;;1.20;1.08;;;;;;;-1.24;78.02;94275.63;4947137;28;20196;-78
2021/12/01 05:39:33;;;;;;;7.00;3.78;;;;;;;-1.32;79.43;94285.97;4946658;29;20264;-79
2021/12/01 05:42:04;;;;;;;3.85;2.33;;;;;;;-1.47;80.06;94276.88;4948734;28;20683;-80
2021/12/01 05:44:31;;;;;;;5.00;2.05;;;;;;;-1.49;80.42;94276.34;4943275;29;20662;-78
2021/12/01 05:47:03;;;;;;;1.45;1.30;;;;;;;-1.45;78.80;94293.34;4955608;28;20472;-78
2021/12/01 05:49:29;;;;;;;4.13;2.03;;;;;;;-1.57;78.55;94282.16;4948157;28;20287;-79
2021/12/01 05:51:56;;;;;;;2.70;1.80;;;;;;;-1.55;78.43;94285.38;4949851;29;20619;-79
2021/12/01 05:54:23;;;;;;;3.50;1.75;;;;;;;-1.31;77.46;94288.34;4955741;28;20322;-79
2021/12/01 05:56:50;;;;;;;4.47;2.90;;;;;;;-1.28;77.57;94302.97;4955467;28;21099;-79
2021/12/01 05:59:17;;;;;;;1.85;1.27;;;;;;;-1.44;76.89;94276.38;4948055;28;20192;-78
2021/12/01 06:01:44;;;;;;;2.63;1.08;;;;;;;-1.31;78.75;94314.13;4947710;28;20254;-78
2021/12/01 06:04:12;;;;;;;5.03;2.70;;;;;;;-1.46;78.61;94305.03;4946758;28;20208;-79
2021/12/01 06:06:39;;;;;;;3.92;1.77;;;;;;;-1.42;77.90;94304.53;4965313;28;20654;-78
2021/12/01 06:09:06;;;;;;;2.67;1.88;;;;;;;-1.34;76.98;94298.69;4965930;28;20199;-80
2021/12/01 06:11:33;;;;;;;5.38;2.92;;;;;;;-1.24;78.11;94307.50;4955211;28;20207;-79
2021/12/01 06:14:01;;;;;;;6.38;2.58;;;;;;;-1.35;77.16;94299.75;4955573;28;20203;-78
2021/12/01 06:16:28;;;;;;;4.00;2.03;;;;;;;-1.26;77.77;94299.00;4955387;28;20207;-77
2021/12/01 06:18:55;;;;;;;3.70;2.20;;;;;;;-1.39;79.15;94306.66;4954772;28;20266;-78
2021/12/01 06:21:23;;;;;;;6.97;3.03;;;;;;;-1.20;78.53;94323.72;4955042;28;20266;-78
2021/12/01 06:23:50;;;;;;;4.18;2.22;;;;;;;-1.20;77.29;94334.34;4953748;28;20210;-78
2021/12/01 06:26:17;;;;;;;3.50;2.65;;;;;;;-1.45;77.94;94332.41;4952430;28;20218;-79
2021/12/01 06:28:43;;;;;;;4.20;2.17;;;;;;;-1.48;78.19;94331.06;4953789;28;20559;-79
2021/12/01 06:31:10;;;;;;;5.05;2.58;;;;;;;-1.59;77.98;94341.91;4953231;28;20698;-79
2021/12/01 06:33:37;;;;;;;4.90;2.78;;;;;;;-1.46;79.92;94344.88;4953549;28;20270;-78
2021/12/01 06:36:05;;;;;;;5.13;2.33;;;;;;;-1.35;77.26;94358.19;4950696;29;20349;-79
2021/12/01 06:38:33;;;;;;;4.97;2.55;;;;;;;-1.24;78.82;94354.53;4950944;28;20261;-79
2021/12/01 06:41:03;;;;;;;3.83;2.10;;;;;;;-1.20;78.31;94342.31;4950398;29;20301;-79
2021/12/01 06:43:30;;;;;;;5.38;3.13;;;;;;;-1.15;78.46;94352.97;4953199;28;20214;-81
2021/12/01 06:45:57;;;;;;;3.80;1.65;;;;;;;-1.16;79.00;94356.69;4948882;28;20287;-79
2021/12/01 06:48:24;;;;;;;3.75;2.80;;;;;;;-1.24;78.62;94386.41;4944763;29;20235;-78
2021/12/01 06:50:51;;;;;;;3.28;2.45;;;;;;;-1.14;79.09;94375.81;4953040;28;20225;-78
2021/12/01 06:53:18;;;;;;;7.30;3.03;;;;;;;-1.10;78.88;94382.22;4941575;28;20564;-79
2021/12/01 06:55:46;;;;;;;4.32;1.70;;;;;;;-1.02;78.23;94394.19;4950595;29;20281;-78
2021/12/01 06:58:14;;;;;;;2.75;1.95;;;;;;;-1.06;77.64;94401.88;4953100;28;20277;-78
2021/12/01 07:00:41;;;;;;;6.43;2.92;;;;;;;-1.03;76.87;94388.06;4939729;29;20211;-78
2021/12/01 07:03:07;;;;;;;3.30;2.40;;;;;;;-0.93;77.82;94385.44;4940063;28;20263;-78
2021/12/01 07:05:34;;;;;;;5.03;2.38;;;;;;;-0.77;78.02;94372.97;4952955;28;20263;-78
2021/12/01 07:08:01;;;;;;;3.72;2.70;;;;;;;-0.50;77.36;94396.69;4953508;28;20214;-78
2021/12/01 07:10:28;;;;;;;3.67;2.42;;;;;;;-0.17;75.43;94374.09;4949063;28;20211;-78
2021/12/01 07:12:56;;;;;;;2.78;2.08;;;;;;;-0.19;74.36;94398.31;4949365;28;20254;-77
2021/12/01 07:15:23;;;;;;;5.68;2.67;;;;;;;-0.21;74.87;94405.78;4955066;28;20297;-77
2021/12/01 07:17:50;;;;;;;4.40;2.38;;;;;;;-0.24;75.00;94395.66;4970420;28;20621;-78
2021/12/01 07:20:17;;;;;;;3.63;2.40;;;;;;;0.00;73.97;94388.72;4944467;28;20299;-77
2021/12/01 07:22:44;;;;;;;3.28;2.13;;;;;;;0.06;73.36;94383.41;4947293;29;20262;-77
2021/12/01 07:25:12;;;;;;;4.28;3.42;;;;;;;0.31;72.64;94364.72;4952453;28;20203;-77
2021/12/01 07:27:40;;;;;;;4.35;2.30;;;;;;;0.34;73.78;94358.84;4952999;28;20370;-77
2021/12/01 07:30:09;;;;;;;5.55;2.63;;;;;;;0.53;72.52;94367.88;4952256;28;20215;-76
2021/12/01 07:32:36;;;;;;;5.20;2.17;;;;;;;0.54;72.38;94364.16;4951413;28;20222;-76
2021/12/01 07:35:05;;;;;;;6.63;2.22;;;;;;;0.61;72.39;94353.19;4943054;28;20242;-76
2021/12/01 07:37:31;;;;;;;4.32;2.75;;;;;;;0.61;70.76;94359.31;4944546;28;20207;-77
2021/12/01 07:39:58;;;;;;;3.72;1.88;;;;;;;0.82;71.68;94359.25;4951130;28;20211;-75
2021/12/01 07:42:25;;;;;;;2.50;1.77;;;;;;;0.89;71.08;94370.41;4950830;28;20262;-75
2021/12/01 07:44:52;;;;;;;6.80;3.65;;;;;;;0.99;71.23;94344.47;4941609;28;20232;-75
2021/12/01 07:47:20;;;;;;;6.03;3.38;;;;;;;1.16;70.11;94365.47;4946122;28;20262;-74
2021/12/01 07:49:47;;;;;;;3.30;2.00;;;;;;;1.23;70.25;94363.28;4952633;28;20211;-75
2021/12/01 07:52:13;;;;;;;5.10;2.45;;;;;;;1.14;71.24;94372.94;4939066;28;20288;-74
2021/12/01 07:54:40;;;;;;;9.15;3.35;;;;;;;1.37;70.98;94377.59;4940841;28;20247;-74
2021/12/01 07:57:08;;;;;;;4.93;1.65;;;;;;;1.40;69.35;94409.06;4949094;29;20217;-74
2021/12/01 07:59:35;;;;;;;5.00;3.15;;;;;;;1.59;69.88;94381.75;4951771;28;20567;-75
2021/12/01 08:02:02;;;;;;;6.88;3.58;;;;;;;1.68;68.71;94398.75;4939299;28;20211;-75
2021/12/01 08:04:30;;;;;;;7.63;2.50;;;;;;;1.91;68.79;94407.97;4951073;28;20214;-75
2021/12/01 08:06:57;;;;;;;3.13;2.35;;;;;;;1.98;68.09;94395.09;4951458;28;20203;-76
2021/12/01 08:09:25;;;;;;;7.35;3.38;;;;;;;1.96;68.46;94400.69;4951887;28;20295;-75
2021/12/01 08:11:52;;;;;;;3.75;2.30;;;;;;;1.88;69.94;94398.63;4952009;28;20215;-75
2021/12/01 08:14:19;;;;;;;7.47;3.45;;;;;;;2.08;69.23;94398.47;4951622;28;20211;-76
2021/12/01 08:16:47;;;;;;;4.97;1.42;;;;;;;2.29;67.06;94400.97;4950962;28;20575;-76
2021/12/01 08:19:14;;;;;;;5.95;3.03;;;;;;;2.16;67.92;94399.75;4949558;29;20215;-76
2021/12/01 08:21:46;;;;;;;8.45;3.97;;;;;;;2.66;68.24;94403.00;4951728;28;20211;-77
2021/12/01 08:24:14;;;;;;;2.60;1.63;;;;;;;2.33;67.53;94401.97;4951568;28;20202;-76
2021/12/01 08:26:41;;;;;;;1.77;1.52;;;;;;;2.46;67.03;94409.38;4951237;28;20221;-76
2021/12/01 08:29:09;;;;;;;2.60;2.00;;;;;;;2.29;69.01;94403.63;4950437;28;20273;-76
2021/12/01 08:31:36;;;;;;;3.70;2.38;;;;;;;2.12;68.92;94388.81;4946115;29;20694;-75
2021/12/01 08:34:03;;;;;;;5.03;2.88;;;;;;;2.08;68.42;94409.16;4941500;28;20206;-75
2021/12/01 08:36:30;;;;;;;4.00;2.47;;;;;;;2.13;68.86;94385.06;4950693;28;20297;-75
2021/12/01 08:38:58;;;;;;;5.00;2.38;;;;;;;2.13;69.97;94390.41;4951449;28;20261;-76
2021/12/01 08:41:25;;;;;;;12.75;3.85;;;;;;;2.57;70.61;94389.47;4951631;28;20207;-77
2021/12/01 08:43:52;;;;;;;10.02;3.70;;;;;;;2.68;68.09;94390.94;4951172;28;20218;-77
2021/12/01 08:46:18;;;;;;;10.80;2.60;;;;;;;2.70;68.00;94394.16;4940727;28;20302;-78
2021/12/01 08:48:47;;;;;;;8.05;3.85;;;;;;;2.35;67.69;94407.84;4952613;28;20242;-76
2021/12/01 08:51:14;;;;;;;11.48;4.97;;;;;;;2.32;69.09;94411.09;4956837;28;20659;-76
2021/12/01 08:53:42;;;;;;;9.27;3.60;;;;;;;2.27;68.58;94392.44;4954782;28;20207;-76
2021/12/01 08:56:11;;;;;;;4.57;2.92;;;;;;;2.14;70.18;94391.22;4945853;29;20427;-77
2021/12/01 08:58:38;;;;;;;11.25;4.68;;;;;;;2.21;70.64;94396.22;4956802;28;20270;-77
2021/12/01 09:01:05;;;;;;;4.18;2.70;;;;;;;2.67;68.43;94394.72;4957407;28;20543;-79
2021/12/01 09:03:33;;;;;;;5.40;2.80;;;;;;;2.79;67.59;94392.44;4967165;28;20207;-75
2021/12/01 09:06:00;;;;;;;5.72;2.88;;;;;;;2.69;67.72;94400.56;4956566;28;20215;-77
2021/12/01 09:08:27;;;;;;;6.95;2.90;;;;;;;2.71;67.85;94393.06;4956413;28;20567;-77
2021/12/01 09:10:56;;;;;;;7.32;3.97;;;;;;;2.79;68.29;94395.09;4957028;28;20246;-77
2021/12/01 09:13:29;;;;;;;6.97;3.25;;;;;;;3.15;65.91;94421.44;4956589;28;20266;-78
2021/12/01 09:15:56;;;;;;;7.88;3.70;;;;;;;3.13;65.79;94412.94;4955993;28;20223;-78
2021/12/01 09:18:27;;;;;;;4.40;2.95;;;;;;;2.89;66.63;94402.22;4949178;28;20643;-77
2021/12/01 09:20:54;;;;;;;6.43;3.60;;;;;;;2.53;67.71;94404.47;4947908;29;20204;-78
2021/12/01 09:23:21;;;;;;;8.80;4.03;;;;;;;2.66;68.72;94403.00;4953192;29;20211;-78
2021/12/01 09:25:48;;;;;;;3.88;2.47;;;;;;;2.94;68.00;94406.72;4945613;29;20307;-78
2021/12/01 09:28:16;;;;;;;4.90;2.58;;;;;;;2.99;66.59;94412.03;4950436;28;20207;-79
2021/12/01 09:30:46;;;;;;;8.70;4.07;;;;;;;3.00;68.09;94393.00;4956872;28;20630;-78
2021/12/01 09:33:13;;;;;;;8.55;4.13;;;;;;;2.81;67.18;94400.97;4944765;29;20207;-79
2021/12/01 09:35:40;;;;;;;7.95;4.50;;;;;;;2.69;67.95;94413.94;4953266;28;20679;-79
2021/12/01 09:38:08;;;;;;;6.35;3.10;;;;;;;2.74;68.83;94411.19;4956236;28;20820;-78
2021/12/01 09:40:35;;;;;;;3.35;2.55;;;;;;;2.86;68.98;94413.50;4956736;28;20341;-79
2021/12/01 09:43:02;;;;;;;7.10;3.88;;;;;;;2.90;67.98;94403.00;4955543;28;20662;-80
2021/12/01 09:45:29;;;;;;;5.28;3.45;;;;;;;3.04;69.23;94394.00;4962199;28;20363;-78
2021/12/01 09:47:57;;;;;;;4.40;2.42;;;;;;;2.94;68.12;94404.84;4956540;28;20269;-79
2021/12/01 09:50:24;;;;;;;3.75;2.03;;;;;;;2.84;68.21;94404.97;4956562;28;20269;-79
2021/12/01 09:52:52;;;;;;;7.22;3.90;;;;;;;2.74;69.72;94394.34;4956684;28;20266;-78
2021/12/01 09:55:21;;;;;;;7.25;3.17;;;;;;;2.84;68.67;94400.41;4956614;28;20278;-80
2021/12/01 09:58:11;;;;;;;5.07;2.83;;;;;;;2.88;68.90;94389.91;4956107;28;20206;-77
2021/12/01 10:00:40;;;;;;;18.42;8.70;;;;;;;3.02;70.18;94401.53;4952734;28;20320;-78
2021/12/01 10:03:09;;;;;;;5.80;3.20;;;;;;;3.37;67.63;94408.31;4954598;28;20254;-80
2021/12/01 10:06:00;;;;;;;6.50;3.08;;;;;;;3.49;68.19;94394.50;4954306;28;20207;-78
2021/12/01 10:08:30;;;;;;;10.38;4.75;;;;;;;3.57;68.84;94389.31;4953940;28;20278;-79
2021/12/01 10:10:58;;;;;;;12.02;5.40;;;;;;;3.76;68.30;94377.78;4953621;28;20207;-79
2021/12/01 10:13:30;;;;;;;9.73;4.97;;;;;;;3.79;67.29;94377.22;4953631;28;20598;-79
2021/12/01 10:16:01;;;;;;;8.98;5.00;;;;;;;3.74;67.70;94390.69;4953794;28;20298;-79
2021/12/01 10:18:35;;;;;;;9.13;5.25;;;;;;;3.84;68.53;94390.53;4954281;28;20199;-79
2021/12/01 10:21:06;;;;;;;9.88;5.15;;;;;;;4.02;67.35;94392.41;4953747;28;20260;-79
2021/12/01 10:23:34;;;;;;;12.10;6.00;;;;;;;4.04;67.50;94390.22;4953488;28;20221;-80
2021/12/01 10:26:12;;;;;;;8.63;4.13;;;;;;;4.26;67.58;94393.06;4953086;28;20207;-79
2021/12/01 10:28:40;;;;;;;9.20;4.20;;;;;;;4.55;67.29;94376.75;4952665;28;20662;-79
2021/12/01 10:31:07;;;;;;;12.48;5.45;;;;;;;4.80;67.14;94382.72;4953623;28;20206;-79
2021/12/01 10:33:36;;;;;;;6.63;4.13;;;;;;;4.96;66.32;94382.16;4953719;28;20203;-81
2021/12/01 10:36:07;;;;;;;12.27;6.25;;;;;;;5.05;65.35;94376.91;4950605;29;20302;-79
2021/12/01 10:38:37;;;;;;;13.60;6.78;;;;;;;5.16;66.73;94377.47;4953166;28;20555;-80
2021/12/01 10:41:09;;;;;;;13.15;3.85;;;;;;;5.11;65.80;94380.25;4952727;28;20215;-81
2021/12/01 10:43:39;;;;;;;9.77;4.82;;;;;;;5.33;64.91;94372.28;4947480;28;20223;-79
2021/12/01 10:46:08;;;;;;;12.80;5.70;;;;;;;5.44;65.08;94383.63;4948103;29;20554;-79
2021/12/01 10:48:37;;;;;;;5.95;3.40;;;;;;;4.90;64.66;94386.03;4945905;28;20282;-78
2021/12/01 10:51:04;;;;;;;11.60;4.72;;;;;;;4.37;67.46;94382.19;4944940;28;20705;-79
2021/12/01 10:53:31;;;;;;;6.50;3.63;;;;;;;4.28;67.25;94382.06;4947737;28;20211;-79
2021/12/01 10:56:00;;;;;;;8.13;3.15;;;;;;;4.07;66.16;94389.66;4945540;28;20784;-78
2021/12/01 10:58:35;;;;;;;8.68;4.03;;;;;;;3.82;66.83;94379.31;4944195;28;20207;-80
2021/12/01 11:01:03;;;;;;;9.30;3.97;;;;;;;3.84;69.12;94366.41;4944294;28;20340;-79
2021/12/01 11:03:32;;;;;;;11.07;4.57;;;;;;;4.17;68.62;94362.66;4952824;28;20207;-79
2021/12/01 11:06:11;;;;;;;9.10;5.18;;;;;;;4.43;68.21;94348.81;4948176;28;20199;-78
2021/12/01 11:08:40;;;;;;;5.65;3.35;;;;;;;4.71;65.91;94339.72;4953317;28;20811;-79
2021/12/01 11:11:08;;;;;;;9.48;5.10;;;;;;;4.81;65.65;94344.88;4952686;28;20203;-78
2021/12/01 11:13:38;;;;;;;5.45;3.70;;;;;;;4.72;66.32;94330.56;4952467;28;20210;-78
2021/12/01 11:16:07;;;;;;;8.50;4.60;;;;;;;4.71;66.00;94339.72;4951527;28;20238;-79
2021/12/01 11:18:37;;;;;;;12.07;5.05;;;;;;;4.88;66.79;94333.75;4942192;29;20296;-78
2021/12/01 11:21:08;;;;;;;11.63;5.38;;;;;;;4.93;65.56;94337.13;4941755;29;20255;-79
2021/12/01 11:23:37;;;;;;;11.23;5.07;;;;;;;4.97;66.69;94326.59;4941908;28;20255;-79
2021/12/01 11:26:07;;;;;;;10.88;6.00;;;;;;;5.17;66.38;94325.38;4946238;28;20206;-79
2021/12/01 11:28:37;;;;;;;12.77;6.15;;;;;;;5.44;65.28;94316.47;4948022;28;20191;-79
2021/12/01 11:31:08;;;;;;;7.65;4.03;;;;;;;4.93;67.01;94315.66;4940625;28;20203;-79
2021/12/01 11:33:36;;;;;;;11.80;4.40;;;;;;;4.65;67.32;94324.78;4945448;28;20247;-80
2021/12/01 11:36:08;;;;;;;7.68;3.88;;;;;;;4.35;67.46;94315.44;4946968;28;20321;-79
2021/12/01 11:38:36;;;;;;;5.78;3.03;;;;;;;4.20;68.28;94319.19;4943688;29;20200;-79
2021/12/01 11:41:05;;;;;;;8.90;4.75;;;;;;;4.56;68.84;94326.59;4943369;28;20207;-79
2021/12/01 11:43:34;;;;;;;7.80;4.95;;;;;;;4.64;67.31;94320.53;4943835;29;20239;-79